Time;durP1;ratioP1;P1;durP2;ratioP2;P2;SDS_P1;SDS_P2;PMS_P1;PMS_P2;Temp;Humidity;BMP_temperature;BMP_pressure;BME280_temperature;BME280_humidity;BME280_pressure;Samples;Min_cycle;Max_cycle;Signal;HPM_P1;HPM_P2
2023/12/03 00:01:33;;;;;;;92.47;34.42;;;0.50;99.90;;;;;;5109493;28;20020;-73
2023/12/03 00:03:59;;;;;;;80.45;33.58;;;0.60;99.90;;;;;;5109935;28;20031;-73
2023/12/03 00:06:24;;;;;;;83.97;32.75;;;0.50;99.90;;;;;;5109805;28;20482;-74
2023/12/03 00:08:50;;;;;;;75.18;31.73;;;0.60;99.90;;;;;;5109374;28;20062;-74
2023/12/03 00:11:15;;;;;;;76.07;32.05;;;0.60;99.90;;;;;;5109619;28;20047;-73
2023/12/03 00:13:41;;;;;;;77.25;32.97;;;0.60;99.90;;;;;;5109152;28;20040;-73
2023/12/03 00:16:07;;;;;;;80.72;32.83;;;0.60;99.90;;;;;;5109624;28;20035;-73
2023/12/03 00:18:33;;;;;;;79.75;33.83;;;0.60;99.90;;;;;;5109188;28;20039;-73
2023/12/03 00:20:58;;;;;;;79.78;33.65;;;0.70;99.90;;;;;;5110142;28;20147;-73
2023/12/03 00:23:24;;;;;;;72.07;31.35;;;0.70;99.90;;;;;;5109985;28;20028;-73
2023/12/03 00:25:50;;;;;;;81.47;33.58;;;0.60;99.90;;;;;;5109631;28;20028;-73
2023/12/03 00:28:15;;;;;;;73.32;31.17;;;0.70;99.90;;;;;;5108536;28;20397;-73
2023/12/03 00:30:41;;;;;;;72.45;30.80;;;0.70;99.90;;;;;;5095486;28;20032;-72
2023/12/03 00:33:06;;;;;;;77.70;31.85;;;0.70;99.90;;;;;;5095298;28;20116;-73
2023/12/03 00:35:32;;;;;;;71.53;31.15;;;0.70;99.90;;;;;;5095328;28;20371;-73
2023/12/03 00:37:57;;;;;;;68.85;30.10;;;0.80;99.90;;;;;;5095380;28;20078;-73
2023/12/03 00:40:23;;;;;;;80.45;32.10;;;0.80;99.90;;;;;;5095794;28;20024;-73
2023/12/03 00:42:49;;;;;;;71.03;30.88;;;0.80;99.90;;;;;;5095737;28;20028;-73
2023/12/03 00:45:15;;;;;;;69.10;29.98;;;0.80;99.90;;;;;;5095098;28;20371;-72
2023/12/03 00:47:40;;;;;;;70.93;28.88;;;0.80;99.90;;;;;;5095493;28;20024;-73
2023/12/03 00:50:06;;;;;;;68.70;30.15;;;0.80;99.90;;;;;;5095465;28;20107;-73
2023/12/03 00:52:32;;;;;;;72.05;30.75;;;0.80;99.90;;;;;;5095415;28;20532;-73
2023/12/03 00:54:57;;;;;;;71.18;30.70;;;0.80;99.90;;;;;;5095363;28;20111;-72
2023/12/03 00:57:23;;;;;;;72.03;30.08;;;0.90;99.90;;;;;;5095211;28;20028;-73
2023/12/03 00:59:49;;;;;;;65.88;28.83;;;0.90;99.90;;;;;;5095332;28;20070;-73
2023/12/03 01:02:14;;;;;;;67.00;29.35;;;0.80;99.90;;;;;;5094778;28;20421;-73
2023/12/03 01:04:40;;;;;;;71.85;29.55;;;0.90;99.90;;;;;;5095129;28;20020;-72
2023/12/03 01:07:06;;;;;;;67.03;29.00;;;0.90;99.90;;;;;;5094652;28;20347;-73
2023/12/03 01:09:32;;;;;;;72.72;30.63;;;0.80;99.90;;;;;;5094599;28;20024;-73
2023/12/03 01:11:57;;;;;;;67.32;30.60;;;0.80;99.90;;;;;;5094646;28;20031;-73
2023/12/03 01:14:23;;;;;;;70.63;29.40;;;0.80;99.90;;;;;;5094907;28;20046;-73
2023/12/03 01:16:49;;;;;;;72.53;29.00;;;0.80;99.90;;;;;;5094689;28;20493;-72
2023/12/03 01:19:14;;;;;;;70.72;30.13;;;0.80;99.90;;;;;;5094310;28;20123;-73
2023/12/03 01:21:40;;;;;;;65.57;30.02;;;0.80;99.90;;;;;;5094370;28;20028;-73
2023/12/03 01:24:05;;;;;;;74.25;30.80;;;0.80;99.90;;;;;;5094612;28;20020;-73
2023/12/03 01:26:31;;;;;;;80.07;31.00;;;0.80;99.90;;;;;;5094236;28;20035;-73
2023/12/03 01:28:57;;;;;;;67.47;30.45;;;0.80;99.90;;;;;;5094632;28;20032;-73
2023/12/03 01:31:23;;;;;;;70.78;28.55;;;0.80;99.90;;;;;;5094553;28;20020;-73
2023/12/03 01:33:49;;;;;;;68.72;30.02;;;0.90;99.90;;;;;;5094102;28;20144;-73
2023/12/03 01:36:14;;;;;;;68.80;30.73;;;0.80;99.90;;;;;;5094164;28;20027;-73
2023/12/03 01:38:40;;;;;;;60.75;27.92;;;0.90;99.90;;;;;;5094118;28;20405;-73
2023/12/03 01:41:06;;;;;;;70.25;30.02;;;0.80;99.90;;;;;;5093205;28;20032;-73
2023/12/03 01:43:31;;;;;;;68.47;30.27;;;0.80;99.90;;;;;;5093937;28;20035;-72
2023/12/03 01:45:57;;;;;;;70.03;29.75;;;0.80;99.90;;;;;;5094136;28;20024;-73
2023/12/03 01:48:23;;;;;;;70.25;29.88;;;0.80;99.90;;;;;;5094284;28;20039;-72
2023/12/03 01:50:49;;;;;;;68.32;28.65;;;0.80;99.90;;;;;;5094400;28;20401;-73
2023/12/03 01:53:17;;;;;;;69.18;28.85;;;0.80;99.90;;;;;;5094260;28;20426;-73
2023/12/03 01:55:43;;;;;;;68.18;29.85;;;0.80;99.90;;;;;;5093675;28;20515;-73
2023/12/03 01:58:09;;;;;;;70.63;29.33;;;0.90;99.90;;;;;;5093657;28;20036;-73
2023/12/03 02:00:35;;;;;;;68.45;29.40;;;0.80;99.90;;;;;;5094116;28;20377;-72
2023/12/03 02:03:00;;;;;;;68.05;30.30;;;0.80;99.90;;;;;;5093564;28;20016;-72
2023/12/03 02:05:26;;;;;;;67.30;29.38;;;0.80;99.90;;;;;;5094048;28;20085;-73
2023/12/03 02:07:51;;;;;;;71.28;29.58;;;0.90;99.90;;;;;;5093515;28;20024;-72
2023/12/03 02:10:17;;;;;;;73.22;30.55;;;0.80;99.90;;;;;;5093965;28;20062;-72
2023/12/03 02:12:43;;;;;;;64.45;29.88;;;0.80;99.90;;;;;;5093569;28;20152;-74
2023/12/03 02:15:09;;;;;;;67.22;28.98;;;0.90;99.90;;;;;;5093757;28;20043;-72
2023/12/03 02:17:35;;;;;;;64.13;28.92;;;0.90;99.90;;;;;;5093576;28;20046;-72
2023/12/03 02:20:01;;;;;;;67.28;28.60;;;0.90;99.90;;;;;;5093676;28;20035;-73
2023/12/03 02:22:26;;;;;;;65.95;28.13;;;0.80;99.90;;;;;;5093754;28;20028;-73
2023/12/03 02:24:52;;;;;;;66.38;27.92;;;0.90;99.90;;;;;;5093752;28;20024;-73
2023/12/03 02:27:17;;;;;;;64.32;27.98;;;0.90;99.90;;;;;;5093185;28;20048;-72
2023/12/03 02:29:47;;;;;;;69.65;29.20;;;0.90;99.90;;;;;;5093335;28;20400;-73
2023/12/03 02:32:13;;;;;;;62.38;26.73;;;0.90;99.90;;;;;;5093126;28;20079;-72
2023/12/03 02:34:38;;;;;;;64.90;28.42;;;0.90;99.90;;;;;;5093230;28;20030;-73
2023/12/03 02:37:04;;;;;;;62.10;29.02;;;0.90;99.90;;;;;;5093023;28;20134;-73
2023/12/03 02:39:29;;;;;;;67.50;28.50;;;0.90;99.90;;;;;;5092963;28;20120;-72
2023/12/03 02:41:55;;;;;;;62.17;27.70;;;0.90;99.90;;;;;;5093471;28;20039;-72
2023/12/03 02:44:20;;;;;;;63.15;27.70;;;0.90;99.90;;;;;;5093398;28;20052;-72
2023/12/03 02:46:46;;;;;;;68.10;28.38;;;0.80;99.90;;;;;;5092806;28;20026;-73
2023/12/03 02:49:11;;;;;;;60.13;28.13;;;0.90;99.90;;;;;;5093279;28;20035;-72
2023/12/03 02:51:37;;;;;;;64.85;28.23;;;0.90;99.90;;;;;;5092803;28;20088;-72
2023/12/03 02:54:02;;;;;;;60.78;27.23;;;0.90;99.90;;;;;;5092759;28;20059;-73
2023/12/03 02:56:28;;;;;;;68.20;28.38;;;0.90;99.90;;;;;;5092749;28;20544;-73
2023/12/03 02:58:53;;;;;;;64.13;27.45;;;0.90;99.90;;;;;;5092521;28;20031;-72
2023/12/03 03:01:19;;;;;;;64.60;28.17;;;0.80;99.90;;;;;;5093134;28;20405;-73
2023/12/03 03:03:45;;;;;;;65.35;28.17;;;0.80;99.90;;;;;;5092940;28;20028;-72
2023/12/03 03:06:10;;;;;;;65.07;29.45;;;0.80;99.90;;;;;;5092873;28;20020;-72
2023/12/03 03:08:36;;;;;;;67.47;28.83;;;0.80;99.90;;;;;;5092588;28;20503;-72
2023/12/03 03:11:01;;;;;;;69.47;31.00;;;0.80;99.90;;;;;;5092749;28;20141;-72
2023/12/03 03:13:27;;;;;;;69.25;28.83;;;0.80;99.90;;;;;;5092934;28;20062;-73
2023/12/03 03:15:52;;;;;;;72.50;30.40;;;0.80;99.90;;;;;;5092993;28;20024;-72
2023/12/03 03:18:18;;;;;;;71.10;30.90;;;0.80;99.90;;;;;;5092629;28;20048;-72
2023/12/03 03:20:43;;;;;;;75.05;31.58;;;0.80;99.90;;;;;;5092863;28;20029;-74
2023/12/03 03:23:09;;;;;;;79.28;32.92;;;0.80;99.90;;;;;;5092830;28;20032;-73
2023/12/03 03:25:34;;;;;;;78.20;33.17;;;0.80;99.90;;;;;;5092720;28;20032;-73
2023/12/03 03:28:00;;;;;;;79.60;33.00;;;0.80;99.90;;;;;;5092616;28;20525;-73
2023/12/03 03:30:25;;;;;;;77.07;32.42;;;0.80;99.90;;;;;;5092894;28;20024;-73
2023/12/03 03:32:51;;;;;;;78.60;32.72;;;0.80;99.90;;;;;;5092897;28;20032;-73
2023/12/03 03:35:16;;;;;;;94.75;36.03;;;0.90;99.90;;;;;;5092954;28;20035;-73
2023/12/03 03:37:42;;;;;;;90.47;35.22;;;0.90;99.90;;;;;;5092735;28;20028;-73
2023/12/03 03:40:08;;;;;;;86.18;36.30;;;0.90;99.90;;;;;;5092598;28;20039;-73
2023/12/03 03:42:34;;;;;;;94.15;37.35;;;0.90;99.90;;;;;;5093055;28;20496;-73
2023/12/03 03:44:59;;;;;;;94.65;37.42;;;0.90;99.90;;;;;;5092587;28;20016;-73
2023/12/03 03:47:25;;;;;;;97.90;39.15;;;0.90;99.90;;;;;;5092775;28;20028;-73
2023/12/03 03:49:50;;;;;;;109.50;41.92;;;1.00;99.90;;;;;;5093146;28;20036;-73
2023/12/03 03:52:16;;;;;;;105.93;40.33;;;1.00;99.90;;;;;;5092950;28;20028;-72
2023/12/03 03:54:41;;;;;;;107.35;41.58;;;1.00;99.90;;;;;;5092511;28;20050;-72
2023/12/03 03:57:07;;;;;;;109.57;42.58;;;1.00;99.90;;;;;;5092787;28;20480;-73
2023/12/03 03:59:33;;;;;;;108.32;40.28;;;1.00;99.90;;;;;;5092463;28;20054;-73
2023/12/03 04:01:58;;;;;;;114.57;41.45;;;1.00;99.90;;;;;;5092923;28;20034;-73
2023/12/03 04:04:24;;;;;;;106.00;42.15;;;1.00;99.90;;;;;;5094194;28;20032;-73
2023/12/03 04:06:50;;;;;;;109.70;40.63;;;1.00;99.90;;;;;;5096586;28;20028;-73
2023/12/03 04:09:15;;;;;;;99.82;38.33;;;1.10;99.90;;;;;;5096244;28;20082;-72
2023/12/03 04:11:41;;;;;;;98.05;37.90;;;1.10;99.90;;;;;;5096225;28;20028;-72
2023/12/03 04:14:08;;;;;;;99.25;38.45;;;1.10;99.90;;;;;;5096191;28;20492;-72
2023/12/03 04:16:34;;;;;;;93.03;37.28;;;1.10;99.90;;;;;;5096123;28;20020;-73
2023/12/03 04:19:00;;;;;;;97.28;37.63;;;1.10;99.90;;;;;;5095571;28;20137;-73
2023/12/03 04:21:26;;;;;;;98.90;40.45;;;1.10;99.90;;;;;;5096132;28;20388;-73
2023/12/03 04:23:51;;;;;;;96.97;38.25;;;1.10;99.90;;;;;;5095784;28;20043;-73
2023/12/03 04:26:17;;;;;;;101.90;39.25;;;1.10;99.90;;;;;;5095755;28;20055;-72
2023/12/03 04:28:43;;;;;;;99.22;39.47;;;1.10;99.90;;;;;;5095405;28;20119;-72
2023/12/03 04:31:17;;;;;;;103.28;41.40;;;1.10;99.90;;;;;;5095666;28;20032;-73
2023/12/03 04:33:42;;;;;;;100.70;38.03;;;1.20;99.90;;;;;;5095701;28;20115;-72
2023/12/03 04:36:08;;;;;;;103.88;39.15;;;1.10;99.90;;;;;;5095124;28;20163;-72
2023/12/03 04:38:35;;;;;;;108.47;40.10;;;1.10;99.90;;;;;;5095321;28;20070;-73
2023/12/03 04:41:01;;;;;;;106.30;41.78;;;1.10;99.90;;;;;;5095492;28;20056;-72
2023/12/03 04:43:26;;;;;;;108.20;41.20;;;1.10;99.90;;;;;;5095530;28;20055;-72
2023/12/03 04:45:52;;;;;;;103.45;40.42;;;1.10;99.90;;;;;;5095044;28;20024;-72
2023/12/03 04:48:17;;;;;;;110.25;41.60;;;1.10;99.90;;;;;;5095289;28;20081;-72
2023/12/03 04:50:43;;;;;;;107.00;41.72;;;1.20;99.90;;;;;;5095299;28;20059;-72
2023/12/03 04:53:09;;;;;;;112.63;43.47;;;1.20;99.90;;;;;;5095320;28;20048;-72
2023/12/03 04:55:34;;;;;;;112.03;43.13;;;1.20;99.90;;;;;;5095282;28;20115;-73
2023/12/03 04:58:00;;;;;;;106.43;41.85;;;1.20;99.90;;;;;;5095001;28;20020;-73
2023/12/03 05:00:25;;;;;;;115.30;44.10;;;1.20;99.90;;;;;;5094731;28;20045;-73
2023/12/03 05:02:51;;;;;;;119.15;44.53;;;1.10;99.90;;;;;;5095074;28;20032;-73
2023/12/03 05:05:16;;;;;;;116.00;43.95;;;1.20;99.90;;;;;;5095052;28;20078;-73
2023/12/03 05:07:42;;;;;;;123.72;44.00;;;1.20;99.90;;;;;;5094585;28;20034;-72
2023/12/03 05:10:07;;;;;;;115.82;45.05;;;1.20;99.90;;;;;;5095039;28;20050;-73
2023/12/03 05:12:33;;;;;;;124.53;46.20;;;1.20;99.90;;;;;;5094926;28;20032;-73
2023/12/03 05:14:58;;;;;;;121.68;46.00;;;1.20;99.90;;;;;;5074036;28;20021;-73
2023/12/03 05:17:24;;;;;;;128.85;45.72;;;1.10;99.90;;;;;;5073955;28;20044;-73
2023/12/03 05:19:49;;;;;;;113.78;44.92;;;1.30;99.90;;;;;;5074531;28;20078;-72
2023/12/03 05:22:15;;;;;;;120.07;44.47;;;1.20;99.90;;;;;;5074087;28;20021;-73
2023/12/03 05:24:40;;;;;;;126.75;45.80;;;1.20;99.90;;;;;;5074409;28;20040;-73
2023/12/03 05:27:06;;;;;;;122.43;45.72;;;1.20;99.90;;;;;;5074419;28;20107;-73
2023/12/03 05:29:31;;;;;;;113.53;45.50;;;1.20;99.90;;;;;;5074575;28;20024;-73
2023/12/03 05:31:57;;;;;;;127.18;46.97;;;1.20;99.90;;;;;;5074420;28;20021;-72
2023/12/03 05:34:23;;;;;;;116.47;43.83;;;1.20;99.90;;;;;;5073851;28;20027;-72
2023/12/03 05:36:49;;;;;;;120.43;47.15;;;1.20;99.90;;;;;;5073782;28;20425;-72
2023/12/03 05:39:14;;;;;;;123.03;47.65;;;1.30;99.90;;;;;;5073625;28;20024;-73
2023/12/03 05:41:40;;;;;;;119.57;45.55;;;1.20;99.90;;;;;;5074075;28;20032;-73
2023/12/03 05:44:05;;;;;;;121.97;44.78;;;1.20;99.90;;;;;;5074058;28;20024;-72
2023/12/03 05:46:31;;;;;;;104.07;42.25;;;1.30;99.90;;;;;;5073563;28;20111;-73
2023/12/03 05:48:57;;;;;;;114.55;44.72;;;1.30;99.90;;;;;;5073472;28;20032;-72
2023/12/03 05:51:22;;;;;;;112.38;43.72;;;1.30;99.90;;;;;;5073489;28;20043;-72
2023/12/03 05:53:48;;;;;;;109.43;43.00;;;1.30;99.90;;;;;;5073392;28;20028;-72
2023/12/03 05:56:13;;;;;;;109.78;43.08;;;1.30;99.90;;;;;;5073834;28;20405;-72
2023/12/03 05:58:39;;;;;;;119.38;46.30;;;1.30;99.90;;;;;;5073422;28;20565;-73
2023/12/03 06:01:05;;;;;;;116.90;46.20;;;1.30;99.90;;;;;;5073308;28;20486;-72
2023/12/03 06:03:30;;;;;;;125.78;47.83;;;1.30;99.90;;;;;;5073440;28;20123;-73
2023/12/03 06:05:56;;;;;;;109.90;45.40;;;1.30;99.90;;;;;;5073648;28;20035;-73
2023/12/03 06:08:21;;;;;;;114.43;46.22;;;1.30;99.90;;;;;;5073136;28;20024;-73
2023/12/03 06:10:47;;;;;;;113.30;44.75;;;1.30;99.90;;;;;;5073550;28;20086;-73
2023/12/03 06:13:12;;;;;;;110.00;44.10;;;1.30;99.90;;;;;;5073479;28;20392;-73
2023/12/03 06:15:38;;;;;;;107.10;43.47;;;1.30;99.90;;;;;;5073399;28;20029;-73
2023/12/03 06:18:03;;;;;;;108.22;43.28;;;1.30;99.90;;;;;;5072937;28;20051;-73
2023/12/03 06:20:29;;;;;;;107.82;42.08;;;1.30;99.90;;;;;;5072999;28;20128;-72
2023/12/03 06:22:55;;;;;;;104.68;42.85;;;1.30;99.90;;;;;;5073252;28;20120;-73
2023/12/03 06:25:20;;;;;;;98.43;40.15;;;1.40;99.90;;;;;;5072816;28;20115;-72
2023/12/03 06:27:46;;;;;;;103.05;39.90;;;1.40;99.90;;;;;;5072748;28;20452;-73
2023/12/03 06:30:12;;;;;;;97.55;39.83;;;1.00;99.90;;;;;;5073189;28;20115;-73
2023/12/03 06:32:37;;;;;;;99.93;39.88;;;1.30;99.90;;;;;;5073133;28;20543;-72
2023/12/03 06:35:04;;;;;;;98.05;38.03;;;1.40;99.90;;;;;;5073213;28;20032;-73
2023/12/03 06:37:29;;;;;;;91.32;39.38;;;1.40;99.90;;;;;;5072627;28;20024;-73
2023/12/03 06:39:55;;;;;;;96.78;39.72;;;1.40;99.90;;;;;;5073025;28;20035;-73
2023/12/03 06:42:21;;;;;;;92.05;36.45;;;1.30;99.90;;;;;;5072960;28;20035;-73
2023/12/03 06:44:46;;;;;;;85.85;36.63;;;1.30;99.90;;;;;;5072609;28;20492;-73
2023/12/03 06:47:12;;;;;;;86.20;33.72;;;1.00;99.90;;;;;;5072822;28;20085;-73
2023/12/03 06:49:37;;;;;;;81.65;34.63;;;1.40;99.90;;;;;;5072956;28;20029;-73
2023/12/03 06:52:03;;;;;;;78.00;31.65;;;1.40;99.90;;;;;;5072886;28;20517;-72
2023/12/03 06:54:29;;;;;;;77.07;33.00;;;1.40;99.90;;;;;;5072430;28;20020;-72
2023/12/03 06:56:54;;;;;;;76.28;31.85;;;1.40;99.90;;;;;;5072725;28;20526;-73
2023/12/03 06:59:19;;;;;;;75.43;31.60;;;1.40;99.90;;;;;;5072535;28;20028;-73
2023/12/03 07:01:45;;;;;;;78.97;33.22;;;1.70;99.90;;;;;;5072679;28;20035;-73
2023/12/03 07:04:10;;;;;;;72.38;29.35;;;1.50;99.90;;;;;;5072645;28;20335;-72
2023/12/03 07:06:36;;;;;;;71.45;31.23;;;1.40;99.90;;;;;;5072664;28;20027;-72
2023/12/03 07:09:02;;;;;;;72.90;30.55;;;1.40;99.90;;;;;;5072592;28;20034;-73
2023/12/03 07:11:29;;;;;;;69.35;30.98;;;1.40;99.90;;;;;;5072290;28;20025;-72
2023/12/03 07:13:55;;;;;;;65.95;29.00;;;1.40;99.90;;;;;;5072654;28;20024;-73
2023/12/03 07:16:21;;;;;;;71.32;28.80;;;1.40;99.90;;;;;;5072528;28;20497;-73
2023/12/03 07:18:46;;;;;;;70.13;28.73;;;1.50;99.90;;;;;;5072018;28;20048;-73
2023/12/03 07:21:12;;;;;;;69.07;28.17;;;1.40;99.90;;;;;;5072753;28;20036;-74
2023/12/03 07:23:37;;;;;;;69.85;29.30;;;1.50;99.90;;;;;;5072554;28;20028;-73
2023/12/03 07:26:09;;;;;;;65.32;27.20;;;1.50;99.90;;;;;;5072550;28;20036;-73
2023/12/03 07:28:35;;;;;;;60.55;27.50;;;1.50;99.90;;;;;;5072585;28;20031;-72
2023/12/03 07:31:03;;;;;;;63.28;27.60;;;1.50;99.90;;;;;;5072468;28;20032;-73
2023/12/03 07:33:28;;;;;;;60.72;25.40;;;1.60;99.90;;;;;;5072531;28;20419;-73
2023/12/03 07:35:54;;;;;;;62.50;25.13;;;1.50;99.90;;;;;;5072322;28;20310;-73
2023/12/03 07:38:19;;;;;;;56.47;24.67;;;1.50;99.90;;;;;;5072299;28;20119;-73
2023/12/03 07:40:45;;;;;;;52.20;23.77;;;1.60;99.90;;;;;;5076012;28;20024;-72
2023/12/03 07:43:10;;;;;;;50.85;25.80;;;1.50;99.90;;;;;;5076403;28;20039;-72
2023/12/03 07:45:36;;;;;;;52.67;24.08;;;1.60;99.90;;;;;;5076534;28;20169;-72
2023/12/03 07:48:01;;;;;;;54.20;24.08;;;1.50;99.90;;;;;;5075863;28;20034;-72
2023/12/03 07:50:27;;;;;;;54.78;23.63;;;1.60;99.90;;;;;;5076340;28;20116;-72
2023/12/03 07:52:55;;;;;;;51.60;23.05;;;;;;;;;;5076268;28;20074;-73
2023/12/03 07:55:24;;;;;;;52.53;22.25;;;;;;;;;;5076277;28;20457;-72
2023/12/03 07:57:53;;;;;;;52.22;23.75;;;;;;;;;;5075709;28;20047;-72
2023/12/03 08:00:22;;;;;;;54.17;23.23;;;;;;;;;;5076147;28;20033;-72
2023/12/03 08:02:50;;;;;;;46.33;22.70;;;;;;;;;;5076163;28;20509;-72
2023/12/03 08:05:20;;;;;;;54.33;23.48;;;;;;;;;;5076101;28;20029;-73
2023/12/03 08:07:51;;;;;;;53.50;24.27;;;;;;;;;;5075973;28;20409;-73
2023/12/03 08:10:20;;;;;;;52.58;23.60;;;;;;;;;;5076066;28;20544;-72
2023/12/03 08:12:48;;;;;;;53.95;23.48;;;;;;;;;;5075936;28;20545;-73
2023/12/03 08:15:17;;;;;;;49.72;22.30;;;;;;;;;;5075538;28;20028;-73
2023/12/03 08:17:48;;;;;;;49.95;22.20;;;;;;;;;;5075433;28;20505;-73
2023/12/03 08:20:19;;;;;;;53.47;22.45;;;;;;;;;;5075748;28;20494;-73
2023/12/03 08:22:50;;;;;;;55.88;24.63;;;;;;;;;;5075737;28;20020;-73
2023/12/03 08:25:19;;;;;;;54.88;24.30;;;;;;;;;;5075587;28;20047;-73
2023/12/03 08:27:50;;;;;;;53.42;23.33;;;;;;;;;;5075662;28;20024;-73
2023/12/03 08:30:22;;;;;;;50.90;22.90;;;;;;;;;;5075544;28;20029;-73
2023/12/03 08:32:51;;;;;;;42.83;18.33;;;;;;;;;;5075577;28;20039;-74
2023/12/03 08:35:20;;;;;;;50.47;22.33;;;;;;;;;;5075543;28;20017;-73
2023/12/03 08:37:48;;;;;;;48.92;21.75;;;1.70;99.90;;;;;;5075123;28;20056;-73
2023/12/03 08:40:17;;;;;;;57.30;22.48;;;;;;;;;;5075173;28;20359;-73
2023/12/03 08:42:46;;;;;;;56.05;22.75;;;;;;;;;;5075427;28;20036;-73
2023/12/03 08:45:15;;;;;;;48.95;22.23;;;;;;;;;;5075362;28;20068;-73
2023/12/03 08:47:44;;;;;;;53.90;24.83;;;;;;;;;;5075034;28;20059;-73
2023/12/03 08:50:12;;;;;;;54.75;24.83;;;;;;;;;;5074479;28;20075;-72
2023/12/03 08:52:43;;;;;;;51.75;25.42;;;;;;;;;;5075280;28;20508;-73
2023/12/03 08:55:12;;;;;;;57.03;25.33;;;;;;;;;;5075209;28;20032;-72
2023/12/03 08:57:41;;;;;;;51.75;24.63;;;;;;;;;;5075070;28;20115;-73
2023/12/03 09:00:10;;;;;;;53.75;22.92;;;;;;;;;;5074697;28;20066;-74
2023/12/03 09:02:37;;;;;;;52.30;23.08;;;;;;;;;;5075036;28;20035;-73
2023/12/03 09:05:06;;;;;;;47.53;22.05;;;;;;;;;;5075058;28;20557;-73
2023/12/03 09:07:35;;;;;;;49.42;21.92;;;;;;;;;;5075024;28;20494;-73
2023/12/03 09:10:02;;;;;;;49.47;22.48;;;;;;;;;;5074485;28;20090;-73
2023/12/03 09:12:31;;;;;;;48.22;20.92;;;;;;;;;;5074760;28;20075;-73
2023/12/03 09:15:00;;;;;;;41.83;21.08;;;;;;;;;;5074827;28;20068;-73
2023/12/03 09:17:29;;;;;;;45.58;21.42;;;;;;;;;;5074526;28;20053;-72
2023/12/03 09:19:58;;;;;;;45.55;20.92;;;;;;;;;;5074629;28;20082;-73
2023/12/03 09:22:27;;;;;;;45.35;20.35;;;;;;;;;;5074679;28;20043;-73
2023/12/03 09:24:55;;;;;;;39.97;19.23;;;;;;;;;;5074157;28;20056;-73
2023/12/03 09:27:24;;;;;;;42.85;21.05;;;;;;;;;;5074084;28;20044;-73
2023/12/03 09:29:53;;;;;;;48.60;21.67;;;;;;;;;;5074203;28;20063;-73
2023/12/03 09:32:22;;;;;;;40.88;20.33;;;;;;;;;;5073995;28;20040;-73
2023/12/03 09:34:51;;;;;;;42.88;20.98;;;;;;;;;;5074458;28;20468;-73
2023/12/03 09:37:20;;;;;;;46.47;20.73;;;;;;;;;;5074167;28;20031;-73
2023/12/03 09:39:49;;;;;;;39.55;18.98;;;;;;;;;;5074046;28;20025;-73
2023/12/03 09:42:18;;;;;;;40.83;19.58;;;;;;;;;;5074211;28;20020;-74
2023/12/03 09:44:51;;;;;;;34.90;17.90;;;;;;;;;;5073957;28;20030;-73
2023/12/03 09:47:19;;;;;;;33.45;17.38;;;;;;;;;;5074309;28;20028;-73
2023/12/03 09:49:47;;;;;;;38.08;18.27;;;;;;;;;;5074040;28;20556;-73
2023/12/03 09:52:14;;;;;;;33.20;17.35;;;;;;;;;;5073712;28;20078;-74
2023/12/03 09:54:41;;;;;;;34.42;18.20;;;;;;;;;;5073525;28;20040;-73
2023/12/03 09:57:10;;;;;;;34.75;18.77;;;;;;;;;;5073927;28;20119;-73
2023/12/03 09:59:38;;;;;;;33.28;17.95;;;;;;;;;;5073628;28;20043;-73
2023/12/03 10:02:04;;;;;;;33.80;17.90;;;;;;;;;;5072645;28;20025;-73
2023/12/03 10:04:33;;;;;;;38.70;18.92;;;;;;;;;;5073910;28;20033;-73
2023/12/03 10:07:00;;;;;;;32.13;17.08;;;;;;;;;;5073880;28;20052;-73
2023/12/03 10:09:27;;;;;;;32.38;17.42;;;;;;;;;;5073873;28;20029;-73
2023/12/03 10:11:54;;;;;;;38.60;19.98;;;;;;;;;;5073992;28;20078;-74
2023/12/03 10:14:20;;;;;;;32.25;17.00;;;;;;;;;;5073597;28;20032;-73
2023/12/03 10:16:51;;;;;;;33.47;16.83;;;;;;;;;;5073376;28;20021;-73
2023/12/03 10:19:28;;;;;;;36.38;17.58;;;;;;;;;;5072948;28;20039;-74
2023/12/03 10:22:02;;;;;;;36.42;17.35;;;;;;;;;;5073386;28;20081;-73
2023/12/03 10:24:34;;;;;;;34.25;16.70;;;;;;;;;;5073455;28;20021;-73
2023/12/03 10:27:04;;;;;;;31.75;16.67;;;;;;;;;;5072850;28;20024;-73
2023/12/03 10:29:32;;;;;;;29.58;16.15;;;;;;;;;;5073327;28;20358;-73
2023/12/03 10:32:05;;;;;;;32.25;17.33;;;;;;;;;;5073356;28;20031;-74
2023/12/03 10:34:36;;;;;;;36.78;18.30;;;;;;;;;;5072808;28;20056;-73
2023/12/03 10:37:08;;;;;;;34.30;17.48;;;;;;;;;;5072694;28;20063;-73
2023/12/03 10:39:40;;;;;;;38.55;19.27;;;;;;;;;;5072734;28;20078;-73
2023/12/03 10:42:13;;;;;;;36.00;18.17;;;;;;;;;;5072770;28;20082;-74
2023/12/03 10:44:42;;;;;;;41.35;19.23;;;;;;;;;;5072925;28;20259;-73
2023/12/03 10:47:13;;;;;;;44.35;19.70;;;4.10;1.00;;;;;;5072705;28;20024;-73
2023/12/03 10:49:39;;;;;;;35.72;17.88;;;4.20;1.00;;;;;;5073038;28;20377;-73
2023/12/03 10:52:08;;;;;;;34.42;16.65;;;4.90;1.00;;;;;;5072904;28;20477;-73
2023/12/03 10:54:36;;;;;;;30.65;15.13;;;;;;;;;;5073004;28;20482;-73
2023/12/03 10:57:04;;;;;;;30.35;15.02;;;;;;;;;;5072522;28;20449;-74
2023/12/03 10:59:32;;;;;;;28.00;15.00;;;;;;;;;;5073539;28;20028;-74
2023/12/03 11:01:59;;;;;;;32.70;16.27;;;;;;;;;;5073206;28;20028;-74
2023/12/03 11:04:38;;;;;;;31.77;16.45;;;;;;;;;;5073216;28;20090;-71
2023/12/03 11:07:09;;;;;;;30.05;14.90;;;;;;;;;;5073330;28;20067;-71
2023/12/03 11:09:39;;;;;;;27.55;14.57;;;;;;;;;;5073468;28;20025;-71
2023/12/03 11:12:10;;;;;;;29.35;15.85;;;;;;;;;;5073563;28;20071;-74
2023/12/03 11:14:39;;;;;;;26.92;15.90;;;;;;;;;;5073252;28;20521;-74
2023/12/03 11:17:25;;;;;;;26.60;15.00;;;;;;;;;;5072442;28;20052;-73
2023/12/03 11:19:54;;;;;;;30.02;15.75;;;;;;;;;;5072864;28;20037;-74
2023/12/03 11:22:28;;;;;;;29.23;15.77;;;;;;;;;;5072743;28;20067;-74
2023/12/03 11:25:06;;;;;;;30.45;16.33;;;5.00;1.00;;;;;;5073283;28;20017;-73
2023/12/03 11:27:33;;;;;;;31.65;16.48;;;;;;;;;;5073403;28;20539;-71
2023/12/03 11:30:04;;;;;;;30.83;15.63;;;;;;;;;;5073322;28;20024;-72
2023/12/03 11:32:31;;;;;;;36.65;17.30;;;;;;;;;;5073278;28;20075;-72
2023/12/03 11:35:02;;;;;;;38.95;22.50;;;;;;;;;;5073074;28;20090;-72
2023/12/03 11:37:31;;;;;;;33.60;17.70;;;;;;;;;;5073319;28;20036;-71
2023/12/03 11:40:10;;;;;;;41.42;20.65;;;;;;;;;;5073206;28;20036;-71
2023/12/03 11:42:45;;;;;;;38.03;20.40;;;;;;;;;;5072692;28;20031;-71
2023/12/03 11:45:27;;;;;;;32.22;16.23;;;;;;;;;;5073019;28;20421;-72
2023/12/03 11:48:16;;;;;;;33.38;16.52;;;;;;;;;;5072553;28;20482;-72
2023/12/03 11:50:44;;;;;;;34.47;17.45;;;;;;;;;;5072547;28;20056;-72
2023/12/03 11:53:13;;;;;;;30.73;15.13;;;;;;;;;;5072934;28;20059;-72
2023/12/03 11:55:42;;;;;;;32.95;15.90;;;;;;;;;;5072686;28;20029;-72
2023/12/03 11:58:10;;;;;;;27.65;14.68;;;;;;;;;;5072924;28;20039;-72
2023/12/03 12:00:40;;;;;;;32.30;15.98;;;;;;;;;;5072796;28;20028;-72
2023/12/03 12:03:10;;;;;;;33.38;16.30;;;;;;;;;;5072766;28;20086;-72
2023/12/03 12:05:52;;;;;;;33.97;15.00;;;;;;;;;;5072920;28;20068;-72
2023/12/03 12:08:21;;;;;;;29.25;15.48;;;;;;;;;;5072742;28;20044;-72
2023/12/03 12:10:48;;;;;;;34.10;16.23;;;;;;;;;;5072474;28;20024;-72
2023/12/03 12:13:18;;;;;;;29.98;15.48;;;;;;;;;;5072691;28;20079;-73
2023/12/03 12:15:45;;;;;;;31.35;15.30;;;;;;;;;;5072864;28;20036;-72
2023/12/03 12:18:14;;;;;;;28.55;14.35;;;;;;;;;;5072574;28;20087;-72
2023/12/03 12:20:42;;;;;;;29.75;15.43;;;;;;;;;;5072329;28;20037;-73
2023/12/03 12:23:09;;;;;;;31.75;15.95;;;;;;;;;;5072301;28;20074;-73
2023/12/03 12:25:36;;;;;;;31.13;15.43;;;;;;;;;;5074172;28;20066;-72
2023/12/03 12:28:03;;;;;;;31.83;15.13;;;;;;;;;;5075936;28;20064;-72
2023/12/03 12:30:32;;;;;;;39.10;20.70;;;;;;;;;;5076338;28;20466;-72
2023/12/03 12:32:59;;;;;;;32.08;16.52;;;;;;;;;;5076287;28;20063;-72
2023/12/03 12:35:29;;;;;;;29.08;15.98;;;;;;;;;;5076256;28;20039;-73
2023/12/03 12:38:12;;;;;;;32.45;16.35;;;;;;;;;;5076032;28;20028;-72
2023/12/03 12:40:54;;;;;;;31.27;15.15;;;;;;;;;;5076071;28;20064;-72
2023/12/03 12:43:22;;;;;;;32.03;15.93;;;;;;;;;;5075626;28;20028;-73
2023/12/03 12:45:49;;;;;;;30.73;15.30;;;;;;;;;;5075928;28;20386;-72
2023/12/03 12:48:35;;;;;;;33.90;16.95;;;;;;;;;;5075555;28;20048;-72
2023/12/03 12:51:04;;;;;;;28.63;15.30;;;;;;;;;;5076208;28;20524;-73
2023/12/03 12:53:51;;;;;;;33.25;16.02;;;;;;;;;;5075858;28;20040;-72
2023/12/03 12:56:18;;;;;;;31.85;14.95;;;;;;;;;;5075623;28;20079;-73
2023/12/03 12:58:46;;;;;;;33.20;16.05;;;;;;;;;;5075718;28;20075;-72
2023/12/03 13:01:15;;;;;;;32.30;16.55;;;;;;;;;;5075796;28;20060;-72
2023/12/03 13:03:44;;;;;;;33.55;17.30;;;;;;;;;;5075429;28;20074;-73
2023/12/03 13:06:13;;;;;;;33.83;16.02;;;;;;;;;;5075624;28;20086;-72
2023/12/03 13:08:43;;;;;;;34.35;16.23;;;;;;;;;;5075597;28;20040;-72
2023/12/03 13:11:11;;;;;;;38.50;18.60;;;;;;;;;;5075467;28;20051;-72